sensor_id;sensor_type;location;lat;lon;timestamp;P1;durP1;ratioP1;P2;durP2;ratioP2
2039;SDS011;1025;42.686;23.350;2023-07-22T00:02:11;7.53;;;4.93;;
2039;SDS011;1025;42.686;23.350;2023-07-22T00:04:38;7.80;;;6.20;;
2039;SDS011;1025;42.686;23.350;2023-07-22T00:07:05;7.30;;;5.50;;
2039;SDS011;1025;42.686;23.350;2023-07-22T00:09:32;8.70;;;5.40;;
2039;SDS011;1025;42.686;23.350;2023-07-22T00:11:59;17.83;;;6.40;;
2039;SDS011;1025;42.686;23.350;2023-07-22T00:14:27;8.13;;;6.23;;
2039;SDS011;1025;42.686;23.350;2023-07-22T00:16:53;8.20;;;6.50;;
2039;SDS011;1025;42.686;23.350;2023-07-22T00:19:20;7.90;;;5.90;;
2039;SDS011;1025;42.686;23.350;2023-07-22T00:21:46;7.27;;;4.90;;
2039;SDS011;1025;42.686;23.350;2023-07-22T00:24:13;8.73;;;5.20;;
2039;SDS011;1025;42.686;23.350;2023-07-22T00:26:40;8.00;;;5.37;;
2039;SDS011;1025;42.686;23.350;2023-07-22T00:29:06;4.90;;;4.50;;
2039;SDS011;1025;42.686;23.350;2023-07-22T00:31:35;5.67;;;4.83;;
2039;SDS011;1025;42.686;23.350;2023-07-22T00:34:01;7.53;;;4.17;;
2039;SDS011;1025;42.686;23.350;2023-07-22T00:36:28;6.47;;;5.80;;
2039;SDS011;1025;42.686;23.350;2023-07-22T00:38:55;5.93;;;5.33;;
2039;SDS011;1025;42.686;23.350;2023-07-22T00:41:21;5.30;;;4.90;;
2039;SDS011;1025;42.686;23.350;2023-07-22T00:43:48;8.70;;;6.80;;
2039;SDS011;1025;42.686;23.350;2023-07-22T00:46:14;6.67;;;6.07;;
2039;SDS011;1025;42.686;23.350;2023-07-22T00:48:42;5.93;;;5.33;;
2039;SDS011;1025;42.686;23.350;2023-07-22T00:51:09;6.20;;;5.03;;
2039;SDS011;1025;42.686;23.350;2023-07-22T00:53:35;6.30;;;5.40;;
2039;SDS011;1025;42.686;23.350;2023-07-22T00:56:02;8.77;;;5.50;;
2039;SDS011;1025;42.686;23.350;2023-07-22T00:58:28;8.60;;;6.27;;
2039;SDS011;1025;42.686;23.350;2023-07-22T01:00:55;10.93;;;5.33;;
2039;SDS011;1025;42.686;23.350;2023-07-22T01:03:21;7.83;;;6.47;;
2039;SDS011;1025;42.686;23.350;2023-07-22T01:05:49;8.10;;;5.23;;
2039;SDS011;1025;42.686;23.350;2023-07-22T01:08:17;8.77;;;6.33;;
2039;SDS011;1025;42.686;23.350;2023-07-22T01:10:43;6.07;;;5.57;;
2039;SDS011;1025;42.686;23.350;2023-07-22T01:13:10;8.43;;;5.43;;
2039;SDS011;1025;42.686;23.350;2023-07-22T01:15:36;7.70;;;5.50;;
2039;SDS011;1025;42.686;23.350;2023-07-22T01:18:03;12.13;;;6.07;;
2039;SDS011;1025;42.686;23.350;2023-07-22T01:20:30;7.67;;;6.87;;
2039;SDS011;1025;42.686;23.350;2023-07-22T01:22:58;9.57;;;6.00;;
2039;SDS011;1025;42.686;23.350;2023-07-22T01:25:25;8.10;;;5.43;;
2039;SDS011;1025;42.686;23.350;2023-07-22T01:27:51;8.07;;;6.20;;
2039;SDS011;1025;42.686;23.350;2023-07-22T01:30:18;11.87;;;6.60;;
2039;SDS011;1025;42.686;23.350;2023-07-22T01:32:45;7.47;;;5.63;;
2039;SDS011;1025;42.686;23.350;2023-07-22T01:35:12;7.93;;;5.60;;
2039;SDS011;1025;42.686;23.350;2023-07-22T01:37:40;8.87;;;6.70;;
2039;SDS011;1025;42.686;23.350;2023-07-22T01:40:08;6.57;;;5.93;;
2039;SDS011;1025;42.686;23.350;2023-07-22T01:42:37;9.50;;;7.53;;
2039;SDS011;1025;42.686;23.350;2023-07-22T01:45:04;9.10;;;6.03;;
2039;SDS011;1025;42.686;23.350;2023-07-22T01:47:33;6.50;;;5.90;;
2039;SDS011;1025;42.686;23.350;2023-07-22T01:49:59;8.50;;;5.63;;
2039;SDS011;1025;42.686;23.350;2023-07-22T01:52:26;10.57;;;7.10;;
2039;SDS011;1025;42.686;23.350;2023-07-22T01:54:52;11.07;;;5.80;;
2039;SDS011;1025;42.686;23.350;2023-07-22T01:57:20;5.80;;;5.20;;
2039;SDS011;1025;42.686;23.350;2023-07-22T01:59:46;13.53;;;6.90;;
2039;SDS011;1025;42.686;23.350;2023-07-22T02:02:13;7.97;;;6.70;;
2039;SDS011;1025;42.686;23.350;2023-07-22T02:04:39;6.90;;;6.20;;
2039;SDS011;1025;42.686;23.350;2023-07-22T02:07:06;10.70;;;6.37;;
2039;SDS011;1025;42.686;23.350;2023-07-22T02:09:33;9.00;;;5.93;;
2039;SDS011;1025;42.686;23.350;2023-07-22T02:11:59;11.90;;;7.10;;
2039;SDS011;1025;42.686;23.350;2023-07-22T02:14:27;8.63;;;6.97;;
2039;SDS011;1025;42.686;23.350;2023-07-22T02:16:53;6.60;;;6.00;;
2039;SDS011;1025;42.686;23.350;2023-07-22T02:19:20;9.80;;;6.40;;
2039;SDS011;1025;42.686;23.350;2023-07-22T02:21:46;10.97;;;6.23;;
2039;SDS011;1025;42.686;23.350;2023-07-22T02:24:14;9.27;;;6.20;;
2039;SDS011;1025;42.686;23.350;2023-07-22T02:26:41;9.73;;;6.53;;
2039;SDS011;1025;42.686;23.350;2023-07-22T02:29:07;6.40;;;5.80;;
2039;SDS011;1025;42.686;23.350;2023-07-22T02:31:35;6.97;;;6.27;;
2039;SDS011;1025;42.686;23.350;2023-07-22T02:34:02;7.70;;;6.73;;
2039;SDS011;1025;42.686;23.350;2023-07-22T02:36:28;11.90;;;8.07;;
2039;SDS011;1025;42.686;23.350;2023-07-22T02:38:55;9.47;;;6.53;;
2039;SDS011;1025;42.686;23.350;2023-07-22T02:41:21;8.80;;;6.53;;
2039;SDS011;1025;42.686;23.350;2023-07-22T02:43:48;10.70;;;6.27;;
2039;SDS011;1025;42.686;23.350;2023-07-22T02:46:14;7.90;;;6.90;;
2039;SDS011;1025;42.686;23.350;2023-07-22T02:48:42;11.00;;;6.23;;
2039;SDS011;1025;42.686;23.350;2023-07-22T02:51:09;7.80;;;6.87;;
2039;SDS011;1025;42.686;23.350;2023-07-22T02:53:36;9.67;;;6.67;;
2039;SDS011;1025;42.686;23.350;2023-07-22T02:56:03;8.17;;;6.60;;
2039;SDS011;1025;42.686;23.350;2023-07-22T02:58:29;6.90;;;6.30;;
2039;SDS011;1025;42.686;23.350;2023-07-22T03:00:56;12.97;;;8.03;;
2039;SDS011;1025;42.686;23.350;2023-07-22T03:03:23;13.30;;;6.57;;
2039;SDS011;1025;42.686;23.350;2023-07-22T03:05:52;11.80;;;7.90;;
2039;SDS011;1025;42.686;23.350;2023-07-22T03:08:18;7.40;;;6.70;;
2039;SDS011;1025;42.686;23.350;2023-07-22T03:10:45;8.07;;;6.17;;
2039;SDS011;1025;42.686;23.350;2023-07-22T03:13:13;8.10;;;7.30;;
2039;SDS011;1025;42.686;23.350;2023-07-22T03:15:40;9.63;;;7.30;;
2039;SDS011;1025;42.686;23.350;2023-07-22T03:18:06;11.80;;;7.87;;
2039;SDS011;1025;42.686;23.350;2023-07-22T03:20:35;8.63;;;7.13;;
2039;SDS011;1025;42.686;23.350;2023-07-22T03:23:03;12.50;;;8.80;;
2039;SDS011;1025;42.686;23.350;2023-07-22T03:25:29;12.80;;;7.33;;
2039;SDS011;1025;42.686;23.350;2023-07-22T03:27:56;9.40;;;7.37;;
2039;SDS011;1025;42.686;23.350;2023-07-22T03:30:22;11.10;;;7.60;;
2039;SDS011;1025;42.686;23.350;2023-07-22T03:32:49;11.40;;;6.83;;
2039;SDS011;1025;42.686;23.350;2023-07-22T03:35:16;14.50;;;8.00;;
2039;SDS011;1025;42.686;23.350;2023-07-22T03:37:43;12.80;;;6.80;;
2039;SDS011;1025;42.686;23.350;2023-07-22T03:40:11;7.00;;;6.30;;
2039;SDS011;1025;42.686;23.350;2023-07-22T03:42:44;12.83;;;8.20;;
2039;SDS011;1025;42.686;23.350;2023-07-22T03:45:11;14.20;;;7.60;;
2039;SDS011;1025;42.686;23.350;2023-07-22T03:47:39;11.30;;;8.40;;
2039;SDS011;1025;42.686;23.350;2023-07-22T03:50:06;13.40;;;7.43;;
2039;SDS011;1025;42.686;23.350;2023-07-22T03:52:32;10.43;;;8.30;;
2039;SDS011;1025;42.686;23.350;2023-07-22T03:54:59;14.83;;;10.87;;
2039;SDS011;1025;42.686;23.350;2023-07-22T03:57:27;19.13;;;13.30;;
2039;SDS011;1025;42.686;23.350;2023-07-22T03:59:54;17.43;;;15.63;;
2039;SDS011;1025;42.686;23.350;2023-07-22T04:02:20;17.43;;;14.80;;
2039;SDS011;1025;42.686;23.350;2023-07-22T04:04:47;16.77;;;14.30;;
2039;SDS011;1025;42.686;23.350;2023-07-22T04:07:14;16.80;;;12.90;;
2039;SDS011;1025;42.686;23.350;2023-07-22T04:09:40;24.70;;;13.10;;
2039;SDS011;1025;42.686;23.350;2023-07-22T04:12:07;14.03;;;11.23;;
2039;SDS011;1025;42.686;23.350;2023-07-22T04:14:35;12.20;;;9.00;;
2039;SDS011;1025;42.686;23.350;2023-07-22T04:17:01;13.17;;;9.77;;
2039;SDS011;1025;42.686;23.350;2023-07-22T04:19:29;12.83;;;6.83;;
2039;SDS011;1025;42.686;23.350;2023-07-22T04:21:56;16.80;;;9.77;;
2039;SDS011;1025;42.686;23.350;2023-07-22T04:24:22;10.17;;;7.47;;
2039;SDS011;1025;42.686;23.350;2023-07-22T04:26:50;10.47;;;7.20;;
2039;SDS011;1025;42.686;23.350;2023-07-22T04:29:18;14.30;;;8.00;;
2039;SDS011;1025;42.686;23.350;2023-07-22T04:31:46;9.47;;;7.97;;
2039;SDS011;1025;42.686;23.350;2023-07-22T04:34:13;18.60;;;8.97;;
2039;SDS011;1025;42.686;23.350;2023-07-22T04:36:39;9.40;;;7.87;;
2039;SDS011;1025;42.686;23.350;2023-07-22T04:39:06;11.43;;;7.50;;
2039;SDS011;1025;42.686;23.350;2023-07-22T04:41:33;13.73;;;7.67;;
2039;SDS011;1025;42.686;23.350;2023-07-22T04:44:00;11.30;;;7.80;;
2039;SDS011;1025;42.686;23.350;2023-07-22T04:46:26;16.10;;;9.23;;
2039;SDS011;1025;42.686;23.350;2023-07-22T04:48:56;11.70;;;8.10;;
2039;SDS011;1025;42.686;23.350;2023-07-22T04:51:23;12.87;;;9.23;;
2039;SDS011;1025;42.686;23.350;2023-07-22T04:53:50;13.10;;;7.10;;
2039;SDS011;1025;42.686;23.350;2023-07-22T04:56:16;10.53;;;8.07;;
2039;SDS011;1025;42.686;23.350;2023-07-22T04:58:43;12.90;;;9.17;;
2039;SDS011;1025;42.686;23.350;2023-07-22T05:01:10;12.53;;;8.47;;
2039;SDS011;1025;42.686;23.350;2023-07-22T05:03:37;12.07;;;8.23;;
2039;SDS011;1025;42.686;23.350;2023-07-22T05:06:05;14.63;;;8.10;;
2039;SDS011;1025;42.686;23.350;2023-07-22T05:08:31;10.20;;;8.13;;
2039;SDS011;1025;42.686;23.350;2023-07-22T05:10:58;20.53;;;10.47;;
2039;SDS011;1025;42.686;23.350;2023-07-22T05:13:24;11.50;;;8.20;;
2039;SDS011;1025;42.686;23.350;2023-07-22T05:15:51;10.30;;;8.33;;
2039;SDS011;1025;42.686;23.350;2023-07-22T05:18:17;12.20;;;8.47;;
2039;SDS011;1025;42.686;23.350;2023-07-22T05:20:44;11.13;;;8.80;;
2039;SDS011;1025;42.686;23.350;2023-07-22T05:23:12;13.33;;;7.53;;
2039;SDS011;1025;42.686;23.350;2023-07-22T05:25:38;8.43;;;7.63;;
2039;SDS011;1025;42.686;23.350;2023-07-22T05:28:05;8.70;;;7.23;;
2039;SDS011;1025;42.686;23.350;2023-07-22T05:30:32;19.77;;;9.43;;
2039;SDS011;1025;42.686;23.350;2023-07-22T05:32:58;14.07;;;8.73;;
2039;SDS011;1025;42.686;23.350;2023-07-22T05:35:25;14.47;;;7.90;;
2039;SDS011;1025;42.686;23.350;2023-07-22T05:37:51;9.83;;;7.70;;
2039;SDS011;1025;42.686;23.350;2023-07-22T05:40:19;9.17;;;7.70;;
2039;SDS011;1025;42.686;23.350;2023-07-22T05:42:46;7.90;;;7.20;;
2039;SDS011;1025;42.686;23.350;2023-07-22T05:45:12;9.83;;;8.47;;
2039;SDS011;1025;42.686;23.350;2023-07-22T05:47:40;9.13;;;8.23;;
2039;SDS011;1025;42.686;23.350;2023-07-22T05:50:07;11.00;;;8.93;;
2039;SDS011;1025;42.686;23.350;2023-07-22T05:52:34;9.83;;;8.50;;
2039;SDS011;1025;42.686;23.350;2023-07-22T05:55:00;12.27;;;8.17;;
2039;SDS011;1025;42.686;23.350;2023-07-22T05:57:28;11.00;;;7.53;;
2039;SDS011;1025;42.686;23.350;2023-07-22T05:59:55;12.10;;;8.30;;
2039;SDS011;1025;42.686;23.350;2023-07-22T06:02:21;14.60;;;9.10;;
2039;SDS011;1025;42.686;23.350;2023-07-22T06:04:48;11.90;;;8.10;;
2039;SDS011;1025;42.686;23.350;2023-07-22T06:07:14;12.17;;;8.70;;
2039;SDS011;1025;42.686;23.350;2023-07-22T06:09:41;9.70;;;8.77;;
2039;SDS011;1025;42.686;23.350;2023-07-22T06:12:07;10.10;;;7.90;;
2039;SDS011;1025;42.686;23.350;2023-07-22T06:14:35;8.53;;;7.27;;
2039;SDS011;1025;42.686;23.350;2023-07-22T06:17:02;8.63;;;7.40;;
2039;SDS011;1025;42.686;23.350;2023-07-22T06:19:29;8.87;;;7.03;;
2039;SDS011;1025;42.686;23.350;2023-07-22T06:21:55;7.67;;;6.47;;
2039;SDS011;1025;42.686;23.350;2023-07-22T06:24:22;8.80;;;6.67;;
2039;SDS011;1025;42.686;23.350;2023-07-22T06:26:48;7.93;;;7.13;;
2039;SDS011;1025;42.686;23.350;2023-07-22T06:29:15;15.63;;;7.90;;
2039;SDS011;1025;42.686;23.350;2023-07-22T06:31:43;11.77;;;7.80;;
2039;SDS011;1025;42.686;23.350;2023-07-22T06:34:10;8.93;;;7.83;;
2039;SDS011;1025;42.686;23.350;2023-07-22T06:36:36;10.33;;;7.50;;
2039;SDS011;1025;42.686;23.350;2023-07-22T06:39:03;11.20;;;8.20;;
2039;SDS011;1025;42.686;23.350;2023-07-22T06:41:29;7.90;;;6.30;;
2039;SDS011;1025;42.686;23.350;2023-07-22T06:43:56;7.50;;;6.73;;
2039;SDS011;1025;42.686;23.350;2023-07-22T06:46:22;7.70;;;6.60;;
2039;SDS011;1025;42.686;23.350;2023-07-22T06:48:51;7.60;;;6.53;;
2039;SDS011;1025;42.686;23.350;2023-07-22T06:51:17;12.60;;;5.93;;
2039;SDS011;1025;42.686;23.350;2023-07-22T06:53:44;8.70;;;7.10;;
2039;SDS011;1025;42.686;23.350;2023-07-22T06:56:11;6.90;;;6.10;;
2039;SDS011;1025;42.686;23.350;2023-07-22T06:58:37;7.43;;;6.70;;
2039;SDS011;1025;42.686;23.350;2023-07-22T07:01:04;12.70;;;8.30;;
2039;SDS011;1025;42.686;23.350;2023-07-22T07:03:30;6.87;;;6.27;;
2039;SDS011;1025;42.686;23.350;2023-07-22T07:05:58;7.60;;;6.20;;
2039;SDS011;1025;42.686;23.350;2023-07-22T07:08:25;9.13;;;5.83;;
2039;SDS011;1025;42.686;23.350;2023-07-22T07:10:51;9.30;;;7.07;;
2039;SDS011;1025;42.686;23.350;2023-07-22T07:13:18;7.33;;;6.73;;
2039;SDS011;1025;42.686;23.350;2023-07-22T07:15:46;7.97;;;7.13;;
2039;SDS011;1025;42.686;23.350;2023-07-22T07:18:13;7.27;;;6.67;;
2039;SDS011;1025;42.686;23.350;2023-07-22T07:20:38;9.10;;;6.50;;
2039;SDS011;1025;42.686;23.350;2023-07-22T07:23:06;7.87;;;6.80;;
2039;SDS011;1025;42.686;23.350;2023-07-22T07:25:33;7.47;;;6.77;;
2039;SDS011;1025;42.686;23.350;2023-07-22T07:27:59;8.37;;;7.07;;
2039;SDS011;1025;42.686;23.350;2023-07-22T07:30:26;10.60;;;7.90;;
2039;SDS011;1025;42.686;23.350;2023-07-22T07:32:52;8.40;;;7.17;;
2039;SDS011;1025;42.686;23.350;2023-07-22T07:35:19;8.67;;;7.00;;
2039;SDS011;1025;42.686;23.350;2023-07-22T07:37:45;12.50;;;7.43;;
2039;SDS011;1025;42.686;23.350;2023-07-22T07:40:14;9.17;;;7.77;;
2039;SDS011;1025;42.686;23.350;2023-07-22T07:42:40;11.17;;;8.50;;
2039;SDS011;1025;42.686;23.350;2023-07-22T07:45:07;13.93;;;8.17;;
2039;SDS011;1025;42.686;23.350;2023-07-22T07:47:34;7.77;;;7.17;;
2039;SDS011;1025;42.686;23.350;2023-07-22T07:50:01;7.90;;;7.10;;
2039;SDS011;1025;42.686;23.350;2023-07-22T07:52:28;7.00;;;6.30;;
2039;SDS011;1025;42.686;23.350;2023-07-22T07:54:54;8.60;;;7.90;;
2039;SDS011;1025;42.686;23.350;2023-07-22T07:57:22;6.77;;;6.20;;
2039;SDS011;1025;42.686;23.350;2023-07-22T07:59:49;9.20;;;6.80;;
2039;SDS011;1025;42.686;23.350;2023-07-22T08:02:16;9.00;;;6.40;;
2039;SDS011;1025;42.686;23.350;2023-07-22T08:04:42;9.23;;;7.73;;
2039;SDS011;1025;42.686;23.350;2023-07-22T08:07:09;14.10;;;7.90;;
2039;SDS011;1025;42.686;23.350;2023-07-22T08:09:35;8.40;;;7.30;;
2039;SDS011;1025;42.686;23.350;2023-07-22T08:12:02;9.20;;;7.20;;
2039;SDS011;1025;42.686;23.350;2023-07-22T08:14:30;8.03;;;7.30;;
2039;SDS011;1025;42.686;23.350;2023-07-22T08:16:56;8.07;;;7.27;;
2039;SDS011;1025;42.686;23.350;2023-07-22T08:19:23;10.40;;;7.90;;
2039;SDS011;1025;42.686;23.350;2023-07-22T08:21:49;10.37;;;8.00;;
2039;SDS011;1025;42.686;23.350;2023-07-22T08:24:16;12.23;;;8.13;;
2039;SDS011;1025;42.686;23.350;2023-07-22T08:26:42;8.50;;;7.83;;
2039;SDS011;1025;42.686;23.350;2023-07-22T08:29:09;12.53;;;9.40;;
2039;SDS011;1025;42.686;23.350;2023-07-22T08:31:37;13.00;;;8.67;;
2039;SDS011;1025;42.686;23.350;2023-07-22T08:34:03;11.23;;;7.97;;
2039;SDS011;1025;42.686;23.350;2023-07-22T08:36:30;10.47;;;7.50;;
2039;SDS011;1025;42.686;23.350;2023-07-22T08:38:57;8.50;;;7.80;;
2039;SDS011;1025;42.686;23.350;2023-07-22T08:41:23;12.87;;;8.67;;
2039;SDS011;1025;42.686;23.350;2023-07-22T08:43:50;9.30;;;7.13;;
2039;SDS011;1025;42.686;23.350;2023-07-22T08:46:17;8.80;;;8.00;;
2039;SDS011;1025;42.686;23.350;2023-07-22T08:48:47;12.77;;;8.10;;
2039;SDS011;1025;42.686;23.350;2023-07-22T08:51:15;9.27;;;8.33;;
2039;SDS011;1025;42.686;23.350;2023-07-22T08:53:42;7.40;;;6.60;;
2039;SDS011;1025;42.686;23.350;2023-07-22T08:56:09;11.17;;;8.63;;
2039;SDS011;1025;42.686;23.350;2023-07-22T08:58:36;8.50;;;7.10;;
2039;SDS011;1025;42.686;23.350;2023-07-22T09:01:03;11.60;;;7.60;;
2039;SDS011;1025;42.686;23.350;2023-07-22T09:03:31;9.10;;;8.23;;
2039;SDS011;1025;42.686;23.350;2023-07-22T09:05:59;10.07;;;8.40;;
2039;SDS011;1025;42.686;23.350;2023-07-22T09:08:26;16.33;;;10.03;;
2039;SDS011;1025;42.686;23.350;2023-07-22T09:10:53;10.60;;;7.70;;
2039;SDS011;1025;42.686;23.350;2023-07-22T09:13:19;10.83;;;8.90;;
2039;SDS011;1025;42.686;23.350;2023-07-22T09:15:47;11.77;;;7.50;;
2039;SDS011;1025;42.686;23.350;2023-07-22T09:18:14;11.57;;;7.47;;
2039;SDS011;1025;42.686;23.350;2023-07-22T09:20:41;9.90;;;6.90;;
2039;SDS011;1025;42.686;23.350;2023-07-22T09:23:09;14.73;;;12.33;;
2039;SDS011;1025;42.686;23.350;2023-07-22T09:25:35;8.47;;;7.63;;
2039;SDS011;1025;42.686;23.350;2023-07-22T09:28:02;11.63;;;7.80;;
2039;SDS011;1025;42.686;23.350;2023-07-22T09:30:29;10.03;;;7.93;;
2039;SDS011;1025;42.686;23.350;2023-07-22T09:32:56;10.47;;;7.73;;
2039;SDS011;1025;42.686;23.350;2023-07-22T09:35:24;8.60;;;7.00;;
2039;SDS011;1025;42.686;23.350;2023-07-22T09:37:51;12.50;;;7.73;;
2039;SDS011;1025;42.686;23.350;2023-07-22T09:40:20;8.30;;;7.50;;
2039;SDS011;1025;42.686;23.350;2023-07-22T09:42:47;9.40;;;8.40;;
2039;SDS011;1025;42.686;23.350;2023-07-22T09:45:14;14.80;;;9.70;;
2039;SDS011;1025;42.686;23.350;2023-07-22T09:47:41;13.93;;;8.60;;
2039;SDS011;1025;42.686;23.350;2023-07-22T09:50:10;15.40;;;8.27;;
2039;SDS011;1025;42.686;23.350;2023-07-22T09:52:41;9.40;;;8.07;;
2039;SDS011;1025;42.686;23.350;2023-07-22T09:55:07;8.40;;;7.03;;
2039;SDS011;1025;42.686;23.350;2023-07-22T09:57:35;8.20;;;7.40;;
2039;SDS011;1025;42.686;23.350;2023-07-22T10:00:03;16.20;;;9.63;;
2039;SDS011;1025;42.686;23.350;2023-07-22T10:02:33;13.77;;;7.63;;
2039;SDS011;1025;42.686;23.350;2023-07-22T10:05:02;8.27;;;7.30;;
2039;SDS011;1025;42.686;23.350;2023-07-22T10:07:29;11.70;;;9.20;;
2039;SDS011;1025;42.686;23.350;2023-07-22T10:09:56;8.40;;;7.10;;
2039;SDS011;1025;42.686;23.350;2023-07-22T10:12:23;10.10;;;7.30;;
2039;SDS011;1025;42.686;23.350;2023-07-22T10:14:52;8.90;;;8.00;;
2039;SDS011;1025;42.686;23.350;2023-07-22T10:17:19;9.13;;;8.23;;
2039;SDS011;1025;42.686;23.350;2023-07-22T10:19:46;9.40;;;8.30;;
2039;SDS011;1025;42.686;23.350;2023-07-22T10:22:12;16.00;;;7.97;;
2039;SDS011;1025;42.686;23.350;2023-07-22T10:24:39;17.37;;;9.13;;
2039;SDS011;1025;42.686;23.350;2023-07-22T10:27:07;15.17;;;8.70;;
2039;SDS011;1025;42.686;23.350;2023-07-22T10:29:33;20.63;;;8.93;;
2039;SDS011;1025;42.686;23.350;2023-07-22T10:32:01;17.83;;;7.63;;
2039;SDS011;1025;42.686;23.350;2023-07-22T10:34:29;8.73;;;7.00;;
2039;SDS011;1025;42.686;23.350;2023-07-22T10:36:56;12.87;;;7.80;;
2039;SDS011;1025;42.686;23.350;2023-07-22T10:39:26;14.80;;;7.63;;
2039;SDS011;1025;42.686;23.350;2023-07-22T10:41:57;17.87;;;8.07;;
2039;SDS011;1025;42.686;23.350;2023-07-22T10:44:25;15.77;;;8.40;;
2039;SDS011;1025;42.686;23.350;2023-07-22T10:46:56;8.93;;;5.87;;
2039;SDS011;1025;42.686;23.350;2023-07-22T10:49:24;13.43;;;6.90;;
2039;SDS011;1025;42.686;23.350;2023-07-22T10:51:56;14.33;;;6.10;;
2039;SDS011;1025;42.686;23.350;2023-07-22T10:54:32;15.23;;;7.20;;
2039;SDS011;1025;42.686;23.350;2023-07-22T10:57:02;11.87;;;5.87;;
2039;SDS011;1025;42.686;23.350;2023-07-22T10:59:32;17.10;;;7.67;;
2039;SDS011;1025;42.686;23.350;2023-07-22T11:01:58;15.20;;;6.20;;
2039;SDS011;1025;42.686;23.350;2023-07-22T11:04:26;17.53;;;7.73;;
2039;SDS011;1025;42.686;23.350;2023-07-22T11:07:02;17.33;;;6.53;;
2039;SDS011;1025;42.686;23.350;2023-07-22T11:09:37;24.73;;;7.93;;
2039;SDS011;1025;42.686;23.350;2023-07-22T11:12:04;14.23;;;6.50;;
2039;SDS011;1025;42.686;23.350;2023-07-22T11:14:31;15.80;;;7.53;;
2039;SDS011;1025;42.686;23.350;2023-07-22T11:16:58;18.63;;;7.33;;
2039;SDS011;1025;42.686;23.350;2023-07-22T11:19:27;15.13;;;7.47;;
2039;SDS011;1025;42.686;23.350;2023-07-22T11:21:53;11.63;;;6.30;;
2039;SDS011;1025;42.686;23.350;2023-07-22T11:24:21;40.97;;;8.90;;
2039;SDS011;1025;42.686;23.350;2023-07-22T11:26:48;16.63;;;6.63;;
2039;SDS011;1025;42.686;23.350;2023-07-22T11:29:15;12.97;;;6.70;;
2039;SDS011;1025;42.686;23.350;2023-07-22T11:31:43;16.57;;;7.63;;
2039;SDS011;1025;42.686;23.350;2023-07-22T11:34:10;14.87;;;7.80;;
2039;SDS011;1025;42.686;23.350;2023-07-22T11:36:39;13.60;;;6.67;;
2039;SDS011;1025;42.686;23.350;2023-07-22T11:39:07;18.73;;;8.90;;
2039;SDS011;1025;42.686;23.350;2023-07-22T11:41:34;11.70;;;6.57;;
2039;SDS011;1025;42.686;23.350;2023-07-22T11:44:01;14.27;;;7.07;;
2039;SDS011;1025;42.686;23.350;2023-07-22T11:46:28;20.03;;;7.40;;
2039;SDS011;1025;42.686;23.350;2023-07-22T11:48:55;18.13;;;7.90;;
2039;SDS011;1025;42.686;23.350;2023-07-22T11:51:22;18.13;;;6.77;;
2039;SDS011;1025;42.686;23.350;2023-07-22T11:53:50;18.13;;;6.87;;
2039;SDS011;1025;42.686;23.350;2023-07-22T11:56:18;16.47;;;6.30;;
2039;SDS011;1025;42.686;23.350;2023-07-22T11:58:48;17.20;;;6.40;;
2039;SDS011;1025;42.686;23.350;2023-07-22T12:01:14;19.77;;;7.37;;
2039;SDS011;1025;42.686;23.350;2023-07-22T12:03:41;12.77;;;5.50;;
2039;SDS011;1025;42.686;23.350;2023-07-22T12:06:08;17.17;;;6.20;;
2039;SDS011;1025;42.686;23.350;2023-07-22T12:08:34;12.63;;;6.87;;
2039;SDS011;1025;42.686;23.350;2023-07-22T12:11:02;13.90;;;5.90;;
2039;SDS011;1025;42.686;23.350;2023-07-22T12:13:35;21.00;;;7.73;;
2039;SDS011;1025;42.686;23.350;2023-07-22T12:16:02;15.97;;;6.07;;
2039;SDS011;1025;42.686;23.350;2023-07-22T12:18:40;17.47;;;7.80;;
2039;SDS011;1025;42.686;23.350;2023-07-22T12:21:07;22.83;;;7.40;;
2039;SDS011;1025;42.686;23.350;2023-07-22T12:23:34;20.20;;;8.03;;
2039;SDS011;1025;42.686;23.350;2023-07-22T12:26:00;17.73;;;6.83;;
2039;SDS011;1025;42.686;23.350;2023-07-22T12:28:28;18.60;;;7.23;;
2039;SDS011;1025;42.686;23.350;2023-07-22T12:30:55;13.77;;;7.80;;
2039;SDS011;1025;42.686;23.350;2023-07-22T12:33:22;17.97;;;7.67;;
2039;SDS011;1025;42.686;23.350;2023-07-22T12:35:49;12.50;;;6.80;;
2039;SDS011;1025;42.686;23.350;2023-07-22T12:38:15;11.77;;;5.90;;
2039;SDS011;1025;42.686;23.350;2023-07-22T12:40:42;11.73;;;5.77;;
2039;SDS011;1025;42.686;23.350;2023-07-22T12:43:09;12.20;;;6.87;;
2039;SDS011;1025;42.686;23.350;2023-07-22T12:45:36;18.17;;;8.70;;
2039;SDS011;1025;42.686;23.350;2023-07-22T12:48:03;16.13;;;6.00;;
2039;SDS011;1025;42.686;23.350;2023-07-22T12:50:30;13.20;;;6.20;;
2039;SDS011;1025;42.686;23.350;2023-07-22T12:52:56;12.37;;;6.33;;
2039;SDS011;1025;42.686;23.350;2023-07-22T12:55:23;11.50;;;5.50;;
2039;SDS011;1025;42.686;23.350;2023-07-22T12:57:50;23.03;;;9.53;;
2039;SDS011;1025;42.686;23.350;2023-07-22T13:00:16;18.03;;;6.73;;
2039;SDS011;1025;42.686;23.350;2023-07-22T13:02:44;15.80;;;6.13;;
2039;SDS011;1025;42.686;23.350;2023-07-22T13:05:11;17.40;;;6.97;;
2039;SDS011;1025;42.686;23.350;2023-07-22T13:07:37;14.30;;;6.40;;
2039;SDS011;1025;42.686;23.350;2023-07-22T13:10:13;15.17;;;5.67;;
2039;SDS011;1025;42.686;23.350;2023-07-22T13:12:45;18.37;;;6.53;;
2039;SDS011;1025;42.686;23.350;2023-07-22T13:15:11;10.47;;;7.67;;
2039;SDS011;1025;42.686;23.350;2023-07-22T13:17:38;8.70;;;6.03;;
2039;SDS011;1025;42.686;23.350;2023-07-22T13:20:06;8.67;;;6.00;;
2039;SDS011;1025;42.686;23.350;2023-07-22T13:22:34;14.70;;;6.20;;
2039;SDS011;1025;42.686;23.350;2023-07-22T13:25:00;13.30;;;6.90;;
2039;SDS011;1025;42.686;23.350;2023-07-22T13:27:27;17.83;;;6.63;;
2039;SDS011;1025;42.686;23.350;2023-07-22T13:29:53;14.20;;;6.80;;
2039;SDS011;1025;42.686;23.350;2023-07-22T13:32:19;11.50;;;5.87;;
2039;SDS011;1025;42.686;23.350;2023-07-22T13:34:46;13.03;;;5.83;;
2039;SDS011;1025;42.686;23.350;2023-07-22T13:37:14;25.43;;;7.97;;
2039;SDS011;1025;42.686;23.350;2023-07-22T13:39:41;16.23;;;6.70;;
2039;SDS011;1025;42.686;23.350;2023-07-22T13:42:07;12.97;;;6.10;;
2039;SDS011;1025;42.686;23.350;2023-07-22T13:44:34;14.13;;;7.13;;
2039;SDS011;1025;42.686;23.350;2023-07-22T13:47:00;20.10;;;8.90;;
2039;SDS011;1025;42.686;23.350;2023-07-22T13:49:27;13.67;;;6.17;;
2039;SDS011;1025;42.686;23.350;2023-07-22T13:51:53;13.97;;;7.10;;
2039;SDS011;1025;42.686;23.350;2023-07-22T13:54:21;19.37;;;6.73;;
2039;SDS011;1025;42.686;23.350;2023-07-22T13:56:48;17.03;;;7.33;;
2039;SDS011;1025;42.686;23.350;2023-07-22T13:59:14;15.77;;;6.67;;
2039;SDS011;1025;42.686;23.350;2023-07-22T14:01:41;19.90;;;7.17;;
2039;SDS011;1025;42.686;23.350;2023-07-22T14:04:08;15.67;;;6.70;;
2039;SDS011;1025;42.686;23.350;2023-07-22T14:06:35;21.20;;;8.10;;
2039;SDS011;1025;42.686;23.350;2023-07-22T14:09:01;21.20;;;6.70;;
2039;SDS011;1025;42.686;23.350;2023-07-22T14:11:29;15.03;;;7.83;;
2039;SDS011;1025;42.686;23.350;2023-07-22T14:13:56;14.37;;;5.80;;
2039;SDS011;1025;42.686;23.350;2023-07-22T14:16:23;9.67;;;5.37;;
2039;SDS011;1025;42.686;23.350;2023-07-22T14:18:49;19.77;;;6.57;;
2039;SDS011;1025;42.686;23.350;2023-07-22T14:21:16;12.57;;;6.10;;
2039;SDS011;1025;42.686;23.350;2023-07-22T14:23:43;15.50;;;4.97;;
2039;SDS011;1025;42.686;23.350;2023-07-22T14:26:09;17.33;;;6.43;;
2039;SDS011;1025;42.686;23.350;2023-07-22T14:28:38;13.20;;;5.70;;
2039;SDS011;1025;42.686;23.350;2023-07-22T14:31:04;12.87;;;5.90;;
2039;SDS011;1025;42.686;23.350;2023-07-22T14:33:31;19.83;;;6.23;;
2039;SDS011;1025;42.686;23.350;2023-07-22T14:35:57;13.97;;;6.93;;
2039;SDS011;1025;42.686;23.350;2023-07-22T14:38:24;11.73;;;4.97;;
2039;SDS011;1025;42.686;23.350;2023-07-22T14:40:50;12.40;;;6.37;;
2039;SDS011;1025;42.686;23.350;2023-07-22T14:43:16;15.23;;;5.60;;
2039;SDS011;1025;42.686;23.350;2023-07-22T14:45:44;10.90;;;5.43;;
2039;SDS011;1025;42.686;23.350;2023-07-22T14:48:11;11.33;;;6.17;;
2039;SDS011;1025;42.686;23.350;2023-07-22T14:50:37;14.43;;;6.03;;
2039;SDS011;1025;42.686;23.350;2023-07-22T14:53:04;22.93;;;6.53;;